createdAt,value
2017-01-23T00:00:04.054Z,-0.21
2017-01-23T00:01:03.152Z,-0.29
2017-01-23T00:02:03.962Z,-0.2
2017-01-23T00:03:03.912Z,-0.19
2017-01-23T00:04:03.528Z,-0.19
2017-01-23T00:05:03.426Z,-0.05
2017-01-23T00:06:03.533Z,-0.02
2017-01-23T00:07:02.979Z,-0.03
2017-01-23T00:08:03.380Z,-0.12
2017-01-23T00:09:03.320Z,-0.09
2017-01-23T00:10:03.345Z,-0.02
2017-01-23T00:11:03.738Z,-0.03
2017-01-23T00:12:02.829Z,0.06
2017-01-23T00:13:03.625Z,0.02
2017-01-23T00:14:03.177Z,-0.02
2017-01-23T00:15:03.619Z,0.02
2017-01-23T00:16:03.523Z,-0.08
2017-01-23T00:17:03.162Z,-0.05
2017-01-23T00:18:03.076Z,0.03
2017-01-23T00:19:02.645Z,-0.09
2017-01-23T00:20:03.430Z,-0.01
2017-01-23T00:21:03.008Z,-0.12
2017-01-23T00:22:03.356Z,-0.26
2017-01-23T00:23:03.486Z,-0.29
2017-01-23T00:24:03.300Z,-0.27
2017-01-23T00:25:03.270Z,-0.24
2017-01-23T00:26:02.854Z,-0.16
2017-01-23T00:27:03.208Z,-0.08
2017-01-23T00:28:02.777Z,-0.12
2017-01-23T00:29:02.815Z,-0.23
2017-01-23T00:30:02.758Z,-0.15
2017-01-23T00:31:02.694Z,-0.31
2017-01-23T00:32:03.076Z,-0.31
2017-01-23T00:33:02.648Z,-0.3
2017-01-23T00:34:03.027Z,-0.44
2017-01-23T00:35:02.999Z,-0.51
2017-01-23T00:36:02.566Z,-0.44
2017-01-23T00:37:02.923Z,-0.51
2017-01-23T00:38:02.906Z,-0.42
2017-01-23T00:39:02.869Z,-0.36
2017-01-23T00:40:02.446Z,-0.39
2017-01-23T00:41:02.017Z,-0.44
2017-01-23T00:42:02.385Z,-0.48
2017-01-23T00:43:02.362Z,-0.45
2017-01-23T00:44:02.328Z,-0.48
2017-01-23T00:45:02.708Z,-0.48
2017-01-23T00:46:02.683Z,-0.44
2017-01-23T00:47:02.658Z,-0.49
2017-01-23T00:48:02.648Z,-0.47
2017-01-23T00:49:02.194Z,-0.48
2017-01-23T00:50:02.155Z,-0.42
2017-01-23T00:51:01.727Z,-0.49
2017-01-23T00:52:02.517Z,-0.38
2017-01-23T00:53:01.666Z,-0.44
2017-01-23T00:54:02.042Z,-0.44
2017-01-23T00:55:02.420Z,-0.39
2017-01-23T00:56:02.400Z,-0.57
2017-01-23T00:57:02.365Z,-0.57
2017-01-23T00:58:02.340Z,-0.56
2017-01-23T00:59:02.309Z,-0.6
2017-01-23T01:00:02.266Z,-0.66
2017-01-23T01:01:02.269Z,-0.6
2017-01-23T01:02:02.228Z,-0.65
2017-01-23T01:03:01.780Z,-0.62
2017-01-23T01:04:02.148Z,-0.57
2017-01-23T01:05:02.144Z,-0.48
2017-01-23T01:06:01.715Z,-0.48
2017-01-23T01:07:01.709Z,-0.52
2017-01-23T01:08:02.052Z,-0.56
2017-01-23T01:09:01.625Z,-0.42
2017-01-23T01:10:01.596Z,-0.48
2017-01-23T01:11:01.566Z,-0.42
2017-01-23T01:12:01.121Z,-0.42
2017-01-23T01:13:01.902Z,-0.48
2017-01-23T01:14:01.469Z,-0.48
2017-01-23T01:15:01.872Z,-0.7
2017-01-23T01:16:01.813Z,-0.7
2017-01-23T01:17:01.460Z,-0.7
2017-01-23T01:18:01.758Z,-0.66
2017-01-23T01:19:01.315Z,-0.76
2017-01-23T01:20:01.697Z,-0.69
2017-01-23T01:21:01.265Z,-0.76
2017-01-23T01:22:01.236Z,-0.76
2017-01-23T01:23:00.810Z,-0.77
2017-01-23T01:24:01.578Z,-0.7
2017-01-23T01:25:01.552Z,-0.65
2017-01-23T01:26:01.528Z,-0.65
2017-01-23T01:27:00.741Z,-0.65
2017-01-23T01:28:00.665Z,-0.59
2017-01-23T01:29:01.042Z,-0.73
2017-01-23T01:30:01.421Z,-0.91
2017-01-23T01:31:00.984Z,-0.83
2017-01-23T01:32:01.072Z,-0.81
2017-01-23T01:33:01.320Z,-0.84
2017-01-23T01:34:00.883Z,-0.8
2017-01-23T01:35:00.469Z,-0.84
2017-01-23T01:36:01.242Z,-0.85
2017-01-23T01:37:01.207Z,-0.81
2017-01-23T01:38:01.184Z,-0.89
2017-01-23T01:39:01.155Z,-0.97
2017-01-23T01:40:00.725Z,-0.95
2017-01-23T01:41:00.694Z,-0.99
2017-01-23T01:42:00.663Z,-1.04
2017-01-23T01:43:00.634Z,-0.95
2017-01-23T01:44:01.011Z,-1.04
2017-01-23T01:45:00.574Z,-0.99
2017-01-23T01:46:00.952Z,-0.97
2017-01-23T01:47:00.558Z,-1.03
2017-01-23T01:48:00.087Z,-1.14
2017-01-23T01:49:00.861Z,-1.15
2017-01-23T01:50:00.840Z,-0.99
2017-01-23T01:51:00.400Z,-0.99
2017-01-23T01:51:59.969Z,-1.06
2017-01-23T01:53:00.333Z,-1.24
2017-01-23T01:53:59.928Z,-1.39
2017-01-23T01:55:00.296Z,-1.46
2017-01-23T01:56:00.267Z,-1.45
2017-01-23T01:57:00.625Z,-1.5
2017-01-23T01:58:00.194Z,-1.53
2017-01-23T01:59:00.592Z,-1.3
2017-01-23T02:00:00.605Z,-1.45
2017-01-23T02:01:00.529Z,-1.45
2017-01-23T02:02:00.544Z,-1.57
2017-01-23T02:03:00.050Z,-1.45
2017-01-23T02:04:00.432Z,-1.38
2017-01-23T02:05:00.001Z,-1.3
2017-01-23T02:05:59.558Z,-1.25
2017-01-23T02:07:00.370Z,-1.35
2017-01-23T02:08:00.306Z,-1.2
2017-01-23T02:09:00.288Z,-1.15
2017-01-23T02:10:00.258Z,-1.28
2017-01-23T02:10:59.814Z,-1.17
2017-01-23T02:11:59.800Z,-1.2
2017-01-23T02:13:00.172Z,-1.14
2017-01-23T02:13:59.347Z,-1.21
2017-01-23T02:15:00.114Z,-1.2
2017-01-23T02:15:59.670Z,-1.15
2017-01-23T02:16:59.252Z,-1.18
2017-01-23T02:17:59.313Z,-1.14
2017-01-23T02:18:59.992Z,-1.3
2017-01-23T02:19:59.573Z,-1.12
2017-01-23T02:20:59.141Z,-1.24
2017-01-23T02:21:59.090Z,-1.17
2017-01-23T02:22:59.984Z,-1.24
2017-01-23T02:23:59.849Z,-1.35
2017-01-23T02:24:59.115Z,-1.33
2017-01-23T02:25:59.819Z,-1.23
2017-01-23T02:26:59.789Z,-1.25
2017-01-23T02:27:59.734Z,-1.12
2017-01-23T02:28:59.782Z,-1.17
2017-01-23T02:29:59.276Z,-1.09
2017-01-23T02:30:59.259Z,-1
2017-01-23T02:31:58.812Z,-1.06
2017-01-23T02:32:59.221Z,-1.07
2017-01-23T02:33:59.144Z,-1.27
2017-01-23T02:34:59.226Z,-1.25
2017-01-23T02:35:59.088Z,-1.09
2017-01-23T02:36:59.071Z,-1.12
2017-01-23T02:37:59.041Z,-1.1
2017-01-23T02:38:58.618Z,-1.07
2017-01-23T02:39:59.385Z,-1.15
2017-01-23T02:40:59.353Z,-1.14
2017-01-23T02:41:58.941Z,-1.33
2017-01-23T02:42:59.319Z,-1.23
2017-01-23T02:43:59.329Z,-1.17
2017-01-23T02:44:58.829Z,-1.04
2017-01-23T02:45:58.878Z,-1.12
2017-01-23T02:46:59.219Z,-1.48
2017-01-23T02:47:58.743Z,-1.59
2017-01-23T02:48:59.120Z,-1.67
2017-01-23T02:49:58.281Z,-1.74
2017-01-23T02:50:58.664Z,-1.57
2017-01-23T02:51:58.634Z,-1.71
2017-01-23T02:52:58.590Z,-1.66
2017-01-23T02:53:58.183Z,-1.57
2017-01-23T02:54:58.537Z,-1.6
2017-01-23T02:55:58.523Z,-1.54
2017-01-23T02:56:58.479Z,-1.46
2017-01-23T02:57:58.463Z,-1.33
2017-01-23T02:58:58.423Z,-1.24
2017-01-23T02:59:58.445Z,-1.12
2017-01-23T03:00:58.768Z,-1.1
2017-01-23T03:01:58.336Z,-1.09
2017-01-23T03:02:58.704Z,-1.18
2017-01-23T03:03:58.274Z,-1.36
2017-01-23T03:04:58.257Z,-1.27
2017-01-23T03:05:58.627Z,-1.35
2017-01-23T03:06:58.202Z,-1.17
2017-01-23T03:07:58.563Z,-1.35
2017-01-23T03:08:58.532Z,-1.23
2017-01-23T03:09:58.107Z,-1.17
2017-01-23T03:10:58.491Z,-1.2
2017-01-23T03:11:58.035Z,-1.07
2017-01-23T03:12:58.016Z,-1.04
2017-01-23T03:13:58.405Z,-1.06
2017-01-23T03:14:57.965Z,-1.04
2017-01-23T03:15:58.341Z,-1.06
2017-01-23T03:16:57.912Z,-1.06
2017-01-23T03:17:57.469Z,-1.09
2017-01-23T03:18:58.239Z,-1.14
2017-01-23T03:19:58.223Z,-1.18
2017-01-23T03:20:57.781Z,-1.28
2017-01-23T03:21:57.880Z,-1.28
2017-01-23T03:22:58.140Z,-1.23
2017-01-23T03:23:58.110Z,-1.3
2017-01-23T03:24:57.680Z,-1.25
2017-01-23T03:25:57.646Z,-1.09
2017-01-23T03:26:57.209Z,-1.21
2017-01-23T03:27:57.998Z,-1
2017-01-23T03:28:57.557Z,-0.97
2017-01-23T03:29:57.147Z,-1.06
2017-01-23T03:30:57.898Z,-1.1
2017-01-23T03:31:57.874Z,-1.1
2017-01-23T03:32:57.444Z,-1.12
2017-01-23T03:33:57.817Z,-1.04
2017-01-23T03:34:57.876Z,-1.1
2017-01-23T03:35:57.767Z,-1.07
2017-01-23T03:36:57.370Z,-1.04
2017-01-23T03:37:57.295Z,-1.03
2017-01-23T03:38:57.692Z,-1.12
2017-01-23T03:39:57.230Z,-1.03
2017-01-23T03:40:57.293Z,-1.04
2017-01-23T03:41:57.205Z,-0.96
2017-01-23T03:42:57.552Z,-1.03
2017-01-23T03:43:57.127Z,-1.04
2017-01-23T03:44:57.511Z,-1.09
2017-01-23T03:45:57.076Z,-1.25
2017-01-23T03:46:57.440Z,-1.18
2017-01-23T03:47:57.410Z,-1.12
2017-01-23T03:48:57.010Z,-1.15
2017-01-23T03:49:57.358Z,-1.09
2017-01-23T03:50:56.917Z,-1.18
2017-01-23T03:51:56.897Z,-1.03
2017-01-23T03:52:56.867Z,-1.14
2017-01-23T03:53:56.443Z,-1.1
2017-01-23T03:54:57.207Z,-1.03
2017-01-23T03:55:57.186Z,-1
2017-01-23T03:56:56.336Z,-0.85
2017-01-23T03:57:56.725Z,-0.91
2017-01-23T03:58:57.133Z,-1.02
2017-01-23T03:59:56.656Z,-1.04
2017-01-23T04:00:56.216Z,-1.06
2017-01-23T04:01:56.614Z,-1.2
2017-01-23T04:02:56.972Z,-1.15
2017-01-23T04:03:56.542Z,-1.28
2017-01-23T04:04:56.916Z,-1.04
2017-01-23T04:05:56.886Z,-1.27
2017-01-23T04:06:56.873Z,-1.15
2017-01-23T04:07:56.815Z,-1.18
2017-01-23T04:08:56.800Z,-1.09
2017-01-23T04:09:56.769Z,-1.03
2017-01-23T04:10:56.740Z,-0.95
2017-01-23T04:11:56.713Z,-0.85
2017-01-23T04:12:56.285Z,-0.99
2017-01-23T04:13:56.260Z,-1.03
2017-01-23T04:14:56.627Z,-1.21
2017-01-23T04:15:56.189Z,-1.42
2017-01-23T04:16:55.755Z,-1.5
2017-01-23T04:17:56.127Z,-1.35
2017-01-23T04:18:56.094Z,-1.32
2017-01-23T04:19:56.076Z,-1.25
2017-01-23T04:20:56.464Z,-1.1
2017-01-23T04:21:55.622Z,-1.03
2017-01-23T04:22:55.633Z,-1.04
2017-01-23T04:23:55.958Z,-1.14
2017-01-23T04:24:56.341Z,-1
2017-01-23T04:25:56.304Z,-1.12
2017-01-23T04:26:56.271Z,-1.12
2017-01-23T04:27:55.850Z,-1.07
2017-01-23T04:28:55.811Z,-1.21
2017-01-23T04:29:55.382Z,-1.09
2017-01-23T04:30:56.151Z,-1.1
2017-01-23T04:31:55.736Z,-1.04
2017-01-23T04:32:55.318Z,-1.02
2017-01-23T04:33:55.665Z,-1.1
2017-01-23T04:34:56.033Z,-1.04
2017-01-23T04:35:55.626Z,-0.95
2017-01-23T04:36:55.669Z,-0.8
2017-01-23T04:37:55.953Z,-0.73
2017-01-23T04:38:55.125Z,-0.67
2017-01-23T04:39:55.105Z,-0.67
2017-01-23T04:40:55.868Z,-0.78
2017-01-23T04:41:55.465Z,-0.96
2017-01-23T04:42:55.403Z,-0.81
2017-01-23T04:43:55.380Z,-0.87
2017-01-23T04:44:55.358Z,-0.78
2017-01-23T04:45:55.747Z,-0.73
2017-01-23T04:46:55.695Z,-0.85
2017-01-23T04:47:55.364Z,-0.91
2017-01-23T04:48:55.643Z,-0.85
2017-01-23T04:49:55.270Z,-0.81
2017-01-23T04:50:55.180Z,-0.73
2017-01-23T04:51:55.560Z,-0.69
2017-01-23T04:52:55.578Z,-0.66
2017-01-23T04:53:55.088Z,-0.65
2017-01-23T04:54:55.468Z,-0.56
2017-01-23T04:55:55.445Z,-0.52
2017-01-23T04:56:55.450Z,-0.54
2017-01-23T04:57:55.379Z,-0.52
2017-01-23T04:58:54.954Z,-0.62
2017-01-23T04:59:54.512Z,-0.52
2017-01-23T05:00:55.316Z,-0.47
2017-01-23T05:01:54.874Z,-0.56
2017-01-23T05:02:55.253Z,-1.07
2017-01-23T05:03:54.812Z,-1.12
2017-01-23T05:04:54.781Z,-1.1
2017-01-23T05:05:54.740Z,-1
2017-01-23T05:06:55.175Z,-0.87
2017-01-23T05:07:54.699Z,-0.83
2017-01-23T05:08:54.659Z,-0.73
2017-01-23T05:09:55.048Z,-0.8
2017-01-23T05:10:55.009Z,-0.65
2017-01-23T05:11:54.578Z,-0.63
2017-01-23T05:12:54.541Z,-0.6
2017-01-23T05:13:54.924Z,-0.56
2017-01-23T05:14:54.897Z,-0.66
2017-01-23T05:15:54.874Z,-0.54
2017-01-23T05:16:54.024Z,-0.56
2017-01-23T05:17:54.805Z,-0.56
2017-01-23T05:18:54.782Z,-0.51
2017-01-23T05:19:54.341Z,-0.38
2017-01-23T05:20:53.943Z,-0.44
2017-01-23T05:21:54.690Z,-0.51
2017-01-23T05:22:54.260Z,-0.6
2017-01-23T05:23:54.221Z,-0.51
2017-01-23T05:24:54.187Z,-0.47
2017-01-23T05:25:54.571Z,-0.44
2017-01-23T05:26:54.545Z,-0.56
2017-01-23T05:27:54.107Z,-0.45
2017-01-23T05:28:54.095Z,-0.44
2017-01-23T05:29:54.055Z,-0.42
2017-01-23T05:30:53.621Z,-0.44
2017-01-23T05:31:54.001Z,-0.52
2017-01-23T05:32:53.984Z,-0.34
2017-01-23T05:33:54.345Z,-0.52
2017-01-23T05:34:54.308Z,-0.52
2017-01-23T05:35:54.310Z,-0.47
2017-01-23T05:36:54.265Z,-0.52
2017-01-23T05:37:54.221Z,-0.42
2017-01-23T05:38:53.803Z,-0.31
2017-01-23T05:39:54.170Z,-0.29
2017-01-23T05:40:53.767Z,-0.38
2017-01-23T05:41:53.301Z,-0.3
2017-01-23T05:42:53.315Z,-0.3
2017-01-23T05:43:53.298Z,-0.41
2017-01-23T05:44:54.017Z,-0.3
2017-01-23T05:45:53.996Z,-0.21
2017-01-23T05:46:54.088Z,-0.2
2017-01-23T05:47:53.135Z,-0.19
2017-01-23T05:48:53.546Z,-0.26
2017-01-23T05:49:53.161Z,-0.23
2017-01-23T05:50:53.063Z,-0.24
2017-01-23T05:51:53.422Z,-0.21
2017-01-23T05:52:53.800Z,-0.24
2017-01-23T05:53:53.798Z,-0.19
2017-01-23T05:54:53.850Z,-0.24
2017-01-23T05:55:53.703Z,-0.2
2017-01-23T05:56:53.295Z,-0.21
2017-01-23T05:57:53.645Z,-0.21
2017-01-23T05:58:53.625Z,-0.21
2017-01-23T05:59:53.695Z,-0.16
2017-01-23T06:00:53.280Z,-0.21
2017-01-23T06:01:53.129Z,-0.11
2017-01-23T06:02:53.510Z,-0.2
2017-01-23T06:03:53.091Z,-0.08
2017-01-23T06:04:53.457Z,-0.12
2017-01-23T06:05:53.509Z,-0.11
2017-01-23T06:06:52.985Z,-0.16
2017-01-23T06:07:53.006Z,-0.2
2017-01-23T06:08:52.932Z,-0.19
2017-01-23T06:09:52.509Z,-0.27
2017-01-23T06:10:52.480Z,-0.2
2017-01-23T06:11:53.323Z,-0.15
2017-01-23T06:12:52.850Z,-0.11
2017-01-23T06:13:52.796Z,-0.01
2017-01-23T06:14:53.173Z,-0.05
2017-01-23T06:15:52.791Z,-0.11
2017-01-23T06:16:53.107Z,-0.11
2017-01-23T06:17:53.084Z,-0.02
2017-01-23T06:18:52.658Z,-0.23
2017-01-23T06:19:53.029Z,-0.21
2017-01-23T06:20:52.991Z,-0.08
2017-01-23T06:21:52.160Z,-0.03
2017-01-23T06:22:52.578Z,-0.03
2017-01-23T06:23:52.508Z,-0.09
2017-01-23T06:24:52.869Z,-0.23
2017-01-23T06:25:52.459Z,-0.3
2017-01-23T06:26:52.442Z,-0.24
2017-01-23T06:27:52.397Z,-0.39
2017-01-23T06:28:52.361Z,-0.31
2017-01-23T06:29:52.343Z,-0.21
2017-01-23T06:30:52.314Z,-0.19
2017-01-23T06:31:51.876Z,-0.21
2017-01-23T06:32:52.240Z,-0.2
2017-01-23T06:33:52.267Z,-0.09
2017-01-23T06:34:52.183Z,0.05
2017-01-23T06:35:52.174Z,-0.05
2017-01-23T06:36:52.531Z,-0.03
2017-01-23T06:37:51.705Z,-0.03
2017-01-23T06:38:52.480Z,0.03
2017-01-23T06:39:51.650Z,-0.05
2017-01-23T06:40:52.018Z,-0.09
2017-01-23T06:41:52.395Z,0.05
2017-01-23T06:42:51.965Z,0.05
2017-01-23T06:43:52.351Z,0.23
2017-01-23T06:44:51.908Z,0.16
2017-01-23T06:45:51.874Z,0.23
2017-01-23T06:46:52.257Z,0.13
2017-01-23T06:47:52.315Z,0.12
2017-01-23T06:48:52.207Z,0.13
2017-01-23T06:49:51.781Z,0.1
2017-01-23T06:50:52.170Z,0.15
2017-01-23T06:51:52.114Z,0.09
2017-01-23T06:52:51.693Z,0.17
2017-01-23T06:53:51.774Z,0.21
2017-01-23T06:54:51.624Z,0.21
2017-01-23T06:55:52.008Z,0.24
2017-01-23T06:56:51.563Z,0.16
2017-01-23T06:57:51.537Z,0.19
2017-01-23T06:58:51.548Z,0.24
2017-01-23T06:59:51.878Z,0.25
2017-01-23T07:00:51.860Z,0.28
2017-01-23T07:01:51.815Z,0.23
2017-01-23T07:02:51.408Z,0.28
2017-01-23T07:03:51.767Z,0.3
2017-01-23T07:04:51.847Z,0.33
2017-01-23T07:05:51.716Z,0.33
2017-01-23T07:06:50.875Z,0.35
2017-01-23T07:07:50.854Z,0.24
2017-01-23T07:08:50.824Z,0.21
2017-01-23T07:09:51.602Z,0.24
2017-01-23T07:10:51.588Z,0.28
2017-01-23T07:11:50.783Z,0.24
2017-01-23T07:12:51.163Z,0.28
2017-01-23T07:13:50.682Z,0.28
2017-01-23T07:14:51.051Z,0.3
2017-01-23T07:15:51.015Z,0.27
2017-01-23T07:16:51.401Z,0.15
2017-01-23T07:17:50.975Z,0.17
2017-01-23T07:18:50.941Z,0.23
2017-01-23T07:19:50.909Z,0.13
2017-01-23T07:20:50.941Z,0.23
2017-01-23T07:21:51.258Z,0.24
2017-01-23T07:22:50.831Z,0.27
2017-01-23T07:23:50.399Z,0.23
2017-01-23T07:24:50.801Z,0.17
2017-01-23T07:25:51.141Z,0.23
2017-01-23T07:26:51.129Z,0.21
2017-01-23T07:27:51.086Z,0.24
2017-01-23T07:28:50.658Z,0.23
2017-01-23T07:29:50.624Z,0.16
2017-01-23T07:30:50.603Z,0.19
2017-01-23T07:31:50.562Z,0.13
2017-01-23T07:32:50.951Z,0.34
2017-01-23T07:33:50.522Z,0.19
2017-01-23T07:34:50.898Z,0.3
2017-01-23T07:35:50.461Z,0.43
2017-01-23T07:36:50.434Z,0.43
2017-01-23T07:37:49.996Z,0.57
2017-01-23T07:38:50.378Z,0.56
2017-01-23T07:39:49.960Z,0.53
2017-01-23T07:40:50.717Z,0.57
2017-01-23T07:41:50.305Z,0.65
2017-01-23T07:42:49.859Z,0.64
2017-01-23T07:43:50.634Z,0.53
2017-01-23T07:44:50.213Z,0.64
2017-01-23T07:45:50.175Z,0.68
2017-01-23T07:46:50.571Z,0.62
2017-01-23T07:47:50.514Z,0.64
2017-01-23T07:48:50.114Z,0.52
2017-01-23T07:49:50.463Z,0.64
2017-01-23T07:50:50.432Z,0.57
2017-01-23T07:51:50.418Z,0.65
2017-01-23T07:52:50.391Z,0.71
2017-01-23T07:53:50.351Z,0.64
2017-01-23T07:54:50.338Z,0.68
2017-01-23T07:55:50.302Z,0.57
2017-01-23T07:56:50.279Z,0.52
2017-01-23T07:57:50.245Z,0.6
2017-01-23T07:58:50.225Z,0.6
2017-01-23T07:59:49.788Z,0.64
2017-01-23T08:00:50.166Z,0.64
2017-01-23T08:01:49.334Z,0.53
2017-01-23T08:02:49.706Z,0.46
2017-01-23T08:03:49.678Z,0.43
2017-01-23T08:04:50.065Z,0.51
2017-01-23T08:05:50.024Z,0.6
2017-01-23T08:06:49.993Z,0.61
2017-01-23T08:07:49.974Z,0.68
2017-01-23T08:08:49.638Z,0.65
2017-01-23T08:09:49.926Z,0.52
2017-01-23T08:10:49.472Z,0.49
2017-01-23T08:11:49.036Z,0.53
2017-01-23T08:12:49.013Z,0.6
2017-01-23T08:13:48.994Z,0.64
2017-01-23T08:14:49.355Z,0.65
2017-01-23T08:15:49.743Z,0.62
2017-01-23T08:16:49.309Z,0.68
2017-01-23T08:17:49.685Z,0.53
2017-01-23T08:18:49.260Z,0.68
2017-01-23T08:19:49.229Z,0.7
2017-01-23T08:20:49.602Z,0.72
2017-01-23T08:21:49.170Z,0.74
2017-01-23T08:22:49.142Z,0.82
2017-01-23T08:23:49.525Z,0.79
2017-01-23T08:24:49.485Z,0.8
2017-01-23T08:25:49.463Z,0.79
2017-01-23T08:26:49.034Z,0.82
2017-01-23T08:27:49.415Z,0.74
2017-01-23T08:28:48.965Z,0.61
2017-01-23T08:29:49.356Z,0.62
2017-01-23T08:30:48.911Z,0.64
2017-01-23T08:31:48.494Z,0.71
2017-01-23T08:32:48.466Z,0.7
2017-01-23T08:33:48.830Z,0.67
2017-01-23T08:34:48.803Z,0.57
2017-01-23T08:35:49.170Z,0.67
2017-01-23T08:36:48.775Z,0.61
2017-01-23T08:37:48.730Z,0.64
2017-01-23T08:38:48.700Z,0.72
2017-01-23T08:39:49.075Z,0.68
2017-01-23T08:40:48.242Z,0.75
2017-01-23T08:41:48.611Z,0.79
2017-01-23T08:42:48.995Z,0.82
2017-01-23T08:43:49.014Z,0.83
2017-01-23T08:44:48.546Z,0.83
2017-01-23T08:45:49.007Z,0.85
2017-01-23T08:46:48.877Z,0.85
2017-01-23T08:47:48.428Z,0.78
2017-01-23T08:48:48.412Z,0.78
2017-01-23T08:49:48.794Z,0.78
2017-01-23T08:50:48.758Z,0.72
2017-01-23T08:51:48.326Z,0.75
2017-01-23T08:52:48.295Z,0.71
2017-01-23T08:53:48.273Z,0.82
2017-01-23T08:54:48.638Z,0.86
2017-01-23T08:55:48.226Z,0.85
2017-01-23T08:56:48.595Z,0.9
2017-01-23T08:57:47.750Z,0.89
2017-01-23T08:58:47.730Z,0.93
2017-01-23T08:59:48.508Z,0.97
2017-01-23T09:00:48.084Z,0.89
2017-01-23T09:01:47.642Z,0.85
2017-01-23T09:02:48.432Z,0.78
2017-01-23T09:03:48.003Z,0.8
2017-01-23T09:04:47.561Z,0.72
2017-01-23T09:05:47.943Z,0.86
2017-01-23T09:06:47.507Z,0.9
2017-01-23T09:07:48.287Z,0.8
2017-01-23T09:08:48.255Z,0.68
2017-01-23T09:09:47.818Z,0.61
2017-01-23T09:10:47.832Z,0.57
2017-01-23T09:11:47.772Z,0.43
2017-01-23T09:12:47.752Z,0.31
2017-01-23T09:13:47.719Z,0.27
2017-01-23T09:14:48.146Z,0.17
2017-01-23T09:15:48.053Z,0.16
2017-01-23T09:16:47.646Z,0.27
2017-01-23T09:17:47.623Z,0.33
2017-01-23T09:18:47.666Z,0.41
2017-01-23T09:19:47.544Z,0.46
2017-01-23T09:20:47.143Z,0.39
2017-01-23T09:21:47.954Z,0.39
2017-01-23T09:22:47.872Z,0.42
2017-01-23T09:23:47.432Z,0.56
2017-01-23T09:24:47.823Z,0.6
2017-01-23T09:25:47.387Z,0.71
2017-01-23T09:26:47.760Z,0.71
2017-01-23T09:27:47.800Z,0.72
2017-01-23T09:28:47.309Z,0.85
2017-01-23T09:29:47.266Z,0.82
2017-01-23T09:30:47.648Z,0.93
2017-01-23T09:31:47.611Z,0.8
2017-01-23T09:32:47.188Z,0.88
2017-01-23T09:33:47.613Z,0.82
2017-01-23T09:34:47.586Z,0.88
2017-01-23T09:35:47.553Z,0.99
2017-01-23T09:36:47.075Z,1.01
2017-01-23T09:37:47.508Z,1.04
2017-01-23T09:38:47.015Z,0.99
2017-01-23T09:39:47.024Z,1.07
2017-01-23T09:40:47.360Z,1.11
2017-01-23T09:41:47.340Z,0.99
2017-01-23T09:42:46.505Z,0.86
2017-01-23T09:43:47.299Z,0.93
2017-01-23T09:44:47.275Z,0.88
2017-01-23T09:45:47.311Z,0.89
2017-01-23T09:46:47.221Z,1.06
2017-01-23T09:47:46.780Z,1.03
2017-01-23T09:48:47.208Z,1.08
2017-01-23T09:49:46.719Z,1.01
2017-01-23T09:50:46.682Z,1.06
2017-01-23T09:51:46.244Z,0.92
2017-01-23T09:52:46.636Z,0.88
2017-01-23T09:53:46.584Z,0.92
2017-01-23T09:54:46.171Z,0.93
2017-01-23T09:55:46.556Z,1.06
2017-01-23T09:56:46.927Z,1.03
2017-01-23T09:57:46.895Z,0.96
2017-01-23T09:58:46.874Z,0.88
2017-01-23T09:59:46.453Z,0.75
2017-01-23T10:00:46.815Z,0.79
2017-01-23T10:01:46.382Z,0.72
2017-01-23T10:02:46.750Z,0.79
2017-01-23T10:03:46.327Z,0.88
2017-01-23T10:04:46.695Z,0.9
2017-01-23T10:05:46.680Z,0.9
2017-01-23T10:06:46.241Z,0.79
2017-01-23T10:07:46.610Z,0.8
2017-01-23T10:08:46.590Z,0.67
2017-01-23T10:09:46.563Z,0.7
2017-01-23T10:10:46.136Z,0.41
2017-01-23T10:11:46.148Z,0.31
2017-01-23T10:12:46.076Z,0.37
2017-01-23T10:13:46.052Z,0.33
2017-01-23T10:14:46.041Z,0.16
2017-01-23T10:15:46.397Z,-0.06
2017-01-23T10:16:46.360Z,0.21
2017-01-23T10:17:45.944Z,0.19
2017-01-23T10:18:45.912Z,0.34
2017-01-23T10:19:45.877Z,0.05
2017-01-23T10:20:45.853Z,-0.13
2017-01-23T10:21:45.851Z,-0.2
2017-01-23T10:22:45.838Z,0.03
2017-01-23T10:23:45.810Z,-0.09
2017-01-23T10:24:46.155Z,-0.27
2017-01-23T10:25:46.127Z,-0.01
2017-01-23T10:26:46.135Z,0.15
2017-01-23T10:27:46.069Z,0.24
2017-01-23T10:28:45.634Z,0.13
2017-01-23T10:29:46.018Z,0.15
2017-01-23T10:30:46.027Z,0.34
2017-01-23T10:31:45.968Z,0.37
2017-01-23T10:32:45.509Z,0.41
2017-01-23T10:33:45.497Z,0.31
2017-01-23T10:34:45.474Z,0.31
2017-01-23T10:35:45.830Z,0.35
2017-01-23T10:36:45.805Z,0.46
2017-01-23T10:37:45.370Z,0.3
2017-01-23T10:38:45.746Z,0.45
2017-01-23T10:39:45.722Z,0.57
2017-01-23T10:40:45.730Z,0.68
2017-01-23T10:41:44.872Z,0.78
2017-01-23T10:42:45.238Z,0.46
2017-01-23T10:43:44.790Z,0.34
2017-01-23T10:44:45.180Z,0.06
2017-01-23T10:45:45.148Z,-0.24
2017-01-23T10:46:45.121Z,-0.33
2017-01-23T10:47:45.509Z,-0.42
2017-01-23T10:48:45.481Z,-0.3
2017-01-23T10:49:45.490Z,-0.2
2017-01-23T10:50:45.419Z,-0.21
2017-01-23T10:51:45.419Z,-0.05
2017-01-23T10:52:45.345Z,0.21
2017-01-23T10:53:45.324Z,-0.01
2017-01-23T10:54:45.343Z,0.07
2017-01-23T10:55:44.863Z,0.19
2017-01-23T10:56:45.238Z,0.07
2017-01-23T10:57:45.207Z,-0.24
2017-01-23T10:58:44.383Z,-0.21
2017-01-23T10:59:45.161Z,-0.23
2017-01-23T11:00:45.132Z,-0.24
2017-01-23T11:01:44.699Z,-0.31
2017-01-23T11:02:44.724Z,-0.29
2017-01-23T11:03:44.666Z,-0.03
2017-01-23T11:04:44.618Z,0.06
2017-01-23T11:05:44.989Z,0.21
2017-01-23T11:06:44.959Z,0.35
2017-01-23T11:07:44.520Z,0.37
2017-01-23T11:08:44.903Z,0.43
2017-01-23T11:09:44.871Z,0.56
2017-01-23T11:10:44.439Z,0.61
2017-01-23T11:11:44.811Z,0.56
2017-01-23T11:12:44.392Z,0.7
2017-01-23T11:13:44.353Z,0.56
2017-01-23T11:14:44.340Z,0.57
2017-01-23T11:15:44.702Z,0.65
2017-01-23T11:16:44.333Z,0.71
2017-01-23T11:17:44.246Z,0.86
2017-01-23T11:18:44.219Z,0.53
2017-01-23T11:19:44.590Z,0.52
2017-01-23T11:20:43.767Z,0.65
2017-01-23T11:21:44.549Z,0.45
2017-01-23T11:22:43.816Z,0.6
2017-01-23T11:23:44.091Z,0.53
2017-01-23T11:24:44.056Z,0.64
2017-01-23T11:25:44.426Z,0.82
2017-01-23T11:26:43.993Z,1.07
2017-01-23T11:27:43.959Z,1.1
2017-01-23T11:28:43.554Z,0.86
2017-01-23T11:29:44.345Z,0.79
2017-01-23T11:30:43.883Z,0.93
2017-01-23T11:31:44.240Z,1.07
2017-01-23T11:32:43.433Z,0.82
2017-01-23T11:33:44.239Z,0.74
2017-01-23T11:34:43.858Z,0.96
2017-01-23T11:35:44.156Z,1.1
2017-01-23T11:36:44.130Z,1.15
2017-01-23T11:37:43.771Z,1.15
2017-01-23T11:38:44.053Z,1.04
2017-01-23T11:39:44.068Z,0.61
2017-01-23T11:40:43.259Z,0.72
2017-01-23T11:41:43.972Z,0.88
2017-01-23T11:42:43.544Z,0.97
2017-01-23T11:43:43.918Z,1.03
2017-01-23T11:44:43.582Z,1.03
2017-01-23T11:45:43.454Z,0.89
2017-01-23T11:46:43.844Z,0.82
2017-01-23T11:47:43.406Z,0.85
2017-01-23T11:48:43.783Z,1.07
2017-01-23T11:49:43.343Z,0.83
2017-01-23T11:50:42.916Z,0.61
2017-01-23T11:51:43.343Z,0.62
2017-01-23T11:52:43.672Z,0.6
2017-01-23T11:53:43.638Z,0.56
2017-01-23T11:54:42.799Z,0.23
2017-01-23T11:55:43.210Z,0.13
2017-01-23T11:56:42.750Z,0.25
2017-01-23T11:57:43.129Z,0.49
2017-01-23T11:58:43.109Z,0.37
2017-01-23T11:59:43.066Z,0.46
2017-01-23T12:00:43.058Z,0.49
2017-01-23T12:01:43.423Z,0.42
2017-01-23T12:02:42.989Z,0.37
2017-01-23T12:03:42.956Z,0.41
2017-01-23T12:04:42.926Z,0.52
2017-01-23T12:05:42.896Z,0.53
2017-01-23T12:06:42.470Z,0.45
2017-01-23T12:07:43.248Z,0.42
2017-01-23T12:08:42.833Z,0.49
2017-01-23T12:09:43.200Z,0.7
2017-01-23T12:10:42.775Z,0.68
2017-01-23T12:11:42.736Z,0.7
2017-01-23T12:12:43.125Z,0.65
2017-01-23T12:13:43.070Z,0.64
2017-01-23T12:14:43.061Z,0.52
2017-01-23T12:15:43.020Z,0.6
2017-01-23T12:16:42.997Z,0.71
2017-01-23T12:17:42.975Z,0.88
2017-01-23T12:18:42.948Z,0.67
2017-01-23T12:19:42.908Z,0.72
2017-01-23T12:20:42.890Z,0.72
2017-01-23T12:21:42.450Z,0.7
2017-01-23T12:22:42.428Z,0.7
2017-01-23T12:23:42.396Z,0.75
2017-01-23T12:24:42.782Z,0.93
2017-01-23T12:25:42.754Z,0.97
2017-01-23T12:26:42.318Z,0.86
2017-01-23T12:27:42.689Z,0.89
2017-01-23T12:28:42.273Z,1.08
2017-01-23T12:29:42.233Z,1.35
2017-01-23T12:30:42.627Z,1.31
2017-01-23T12:31:42.582Z,1.46
2017-01-23T12:32:42.562Z,1.53
2017-01-23T12:33:42.521Z,1.55
2017-01-23T12:34:42.092Z,1.44
2017-01-23T12:35:42.079Z,1.5
2017-01-23T12:36:41.628Z,1.54
2017-01-23T12:37:42.428Z,1.58
2017-01-23T12:38:42.398Z,1.71
2017-01-23T12:39:41.637Z,1.68
2017-01-23T12:40:41.943Z,1.73
2017-01-23T12:41:41.967Z,1.54
2017-01-23T12:42:42.287Z,1.17
2017-01-23T12:43:41.846Z,1.21
2017-01-23T12:44:42.226Z,1.11
2017-01-23T12:45:41.795Z,1.01
2017-01-23T12:46:42.168Z,1
2017-01-23T12:47:41.382Z,1.15
2017-01-23T12:48:41.293Z,1.19
2017-01-23T12:49:42.113Z,1.17
2017-01-23T12:50:41.253Z,1.1
2017-01-23T12:51:41.701Z,1.24
2017-01-23T12:52:41.193Z,1.26
2017-01-23T12:53:41.983Z,1.33
2017-01-23T12:54:41.593Z,1.43
2017-01-23T12:55:41.529Z,1.4
2017-01-23T12:56:41.503Z,1.53
2017-01-23T12:57:41.178Z,1.39
2017-01-23T12:58:41.449Z,1.43
2017-01-23T12:59:41.007Z,1.33
2017-01-23T13:00:41.386Z,1.25
2017-01-23T13:01:41.760Z,1.25
2017-01-23T13:02:41.724Z,1.25
2017-01-23T13:03:41.290Z,1.42
2017-01-23T13:04:41.663Z,1.43
2017-01-23T13:05:41.240Z,1.39
2017-01-23T13:06:40.809Z,1.5